createdAt,value
2023-03-20T00:00:51.019Z,1.65
2023-03-20T00:04:51.277Z,1.77
2023-03-20T00:08:51.307Z,1.85
2023-03-20T00:12:51.451Z,1.73
2023-03-20T00:16:51.622Z,1.36
2023-03-20T00:20:51.728Z,1.50
2023-03-20T00:24:51.935Z,2.16
2023-03-20T00:28:52.156Z,1.55
2023-03-20T00:32:52.354Z,1.77
2023-03-20T00:36:52.470Z,1.61
2023-03-20T00:40:52.652Z,1.51
2023-03-20T00:44:52.859Z,1.52
2023-03-20T00:48:53.041Z,1.54
2023-03-20T00:52:53.246Z,1.53
2023-03-20T00:56:53.428Z,1.64
2023-03-20T01:00:53.643Z,1.42
2023-03-20T01:04:53.818Z,1.26
2023-03-20T01:08:53.996Z,1.32
2023-03-20T01:12:54.149Z,1.39
2023-03-20T01:16:54.490Z,1.48
2023-03-20T01:20:54.578Z,1.33
2023-03-20T01:24:54.747Z,1.40
2023-03-20T01:28:54.957Z,1.43
2023-03-20T01:32:55.202Z,1.25
2023-03-20T01:36:55.355Z,1.29
2023-03-20T01:40:55.573Z,1.22
2023-03-20T01:44:55.814Z,1.24
2023-03-20T01:48:55.999Z,1.53
2023-03-20T01:52:56.213Z,1.24
2023-03-20T01:56:56.447Z,1.19
2023-03-20T02:00:56.708Z,1.37
2023-03-20T02:04:56.642Z,1.35
2023-03-20T02:08:56.574Z,1.45
2023-03-20T02:12:56.527Z,1.25
2023-03-20T02:16:56.580Z,1.22
2023-03-20T02:20:56.487Z,0.90
2023-03-20T02:24:56.439Z,1.50
2023-03-20T02:28:56.406Z,1.17
2023-03-20T02:32:56.574Z,1.30
2023-03-20T02:36:56.333Z,1.48
2023-03-20T02:40:56.311Z,1.16
2023-03-20T02:44:56.352Z,1.46
2023-03-20T02:48:56.367Z,1.23
2023-03-20T02:52:56.351Z,1.26
2023-03-20T02:56:56.256Z,1.34
2023-03-20T03:00:56.268Z,1.28
2023-03-20T03:04:56.210Z,1.02
2023-03-20T03:08:56.209Z,1.05
2023-03-20T03:12:56.147Z,1.22
2023-03-20T03:16:56.137Z,1.15
2023-03-20T03:20:56.068Z,1.30
2023-03-20T03:24:56.254Z,1.36
2023-03-20T03:28:56.116Z,1.31
2023-03-20T03:32:56.133Z,1.04
2023-03-20T03:36:56.063Z,1.33
2023-03-20T03:40:55.991Z,1.13
2023-03-20T03:44:55.985Z,0.97
2023-03-20T03:48:55.942Z,1.09
2023-03-20T03:52:55.923Z,0.87
2023-03-20T03:56:55.889Z,1.21
2023-03-20T04:00:55.847Z,0.90
2023-03-20T04:04:56.020Z,1.04
2023-03-20T04:08:55.876Z,1.27
2023-03-20T04:12:55.816Z,1.30
2023-03-20T04:16:55.804Z,1.00
2023-03-20T04:20:55.763Z,0.89
2023-03-20T04:24:55.737Z,1.23
2023-03-20T04:28:55.690Z,1.05
2023-03-20T04:32:55.795Z,1.16
2023-03-20T04:36:55.647Z,0.99
2023-03-20T04:40:55.592Z,1.09
2023-03-20T04:44:55.686Z,1.05
2023-03-20T04:48:55.607Z,1.56
2023-03-20T04:52:55.580Z,1.29
2023-03-20T04:56:55.558Z,0.83
2023-03-20T05:00:55.601Z,1.11
2023-03-20T05:04:55.487Z,1.02
2023-03-20T05:08:55.471Z,1.17
2023-03-20T05:12:57.306Z,0.92
2023-03-20T05:16:55.392Z,1.11
2023-03-20T05:20:55.341Z,0.99
2023-03-20T05:24:55.567Z,1.12
2023-03-20T05:28:55.537Z,1.15
2023-03-20T05:32:55.533Z,0.91
2023-03-20T05:36:55.475Z,0.82
2023-03-20T05:40:55.414Z,1.06
2023-03-20T05:44:55.368Z,0.97
2023-03-20T05:48:55.321Z,0.86
2023-03-20T05:52:55.849Z,1.07
2023-03-20T05:56:57.236Z,1.10
2023-03-20T06:00:55.246Z,0.80
2023-03-20T06:04:55.219Z,0.96
2023-03-20T06:08:55.151Z,0.95
2023-03-20T06:12:55.152Z,0.84
2023-03-20T06:16:55.102Z,0.71
2023-03-20T06:20:55.055Z,0.79
2023-03-20T06:24:56.974Z,0.81
2023-03-20T06:28:54.997Z,0.62
2023-03-20T06:32:55.084Z,0.57
2023-03-20T06:36:55.314Z,0.92
2023-03-20T06:40:55.435Z,0.69
2023-03-20T06:44:55.820Z,1.02
2023-03-20T06:48:55.820Z,0.73
2023-03-20T06:52:55.313Z,1.13
2023-03-20T06:56:55.374Z,1.05
2023-03-20T07:00:55.220Z,1.75
2023-03-20T07:04:55.468Z,1.46
2023-03-20T07:08:55.221Z,1.66
2023-03-20T07:12:55.137Z,1.68
2023-03-20T07:16:55.194Z,1.74
2023-03-20T07:20:55.090Z,1.70
2023-03-20T07:24:55.025Z,1.93
2023-03-20T07:28:55.341Z,1.30
2023-03-20T07:32:55.072Z,1.40
2023-03-20T07:36:54.933Z,1.79
2023-03-20T07:40:54.893Z,1.83
2023-03-20T07:44:55.310Z,1.73
2023-03-20T07:48:55.342Z,1.79
2023-03-20T07:52:55.148Z,3.29
2023-03-20T07:56:55.337Z,2.39
2023-03-20T08:00:55.360Z,3.63
2023-03-20T08:04:55.343Z,3.83
2023-03-20T08:08:55.002Z,3.23
2023-03-20T08:12:55.342Z,3.40
2023-03-20T08:17:12.462Z,3.96
2023-03-20T08:20:55.908Z,3.78
2023-03-20T08:24:55.374Z,3.57
2023-03-20T08:28:54.840Z,3.21
2023-03-20T08:32:54.836Z,2.47
2023-03-20T08:36:54.847Z,4.36
2023-03-20T08:40:54.862Z,3.12
2023-03-20T08:44:54.699Z,6.08
2023-03-20T08:48:54.875Z,3.21
2023-03-20T08:52:54.689Z,2.74
2023-03-20T08:56:54.834Z,2.27
2023-03-20T09:00:54.975Z,2.12
2023-03-20T09:04:55.178Z,1.73
2023-03-20T09:08:55.346Z,2.04
2023-03-20T09:12:55.349Z,1.87
2023-03-20T09:16:55.277Z,1.39
2023-03-20T09:20:55.214Z,1.71
2023-03-20T09:24:55.224Z,1.38
2023-03-20T09:28:55.390Z,1.47
2023-03-20T09:32:55.194Z,1.50
2023-03-20T09:36:55.096Z,1.39
2023-03-20T09:40:55.405Z,1.08
2023-03-20T09:44:55.406Z,1.76
2023-03-20T09:48:55.005Z,1.35
2023-03-20T09:52:54.957Z,1.62
2023-03-20T09:56:54.999Z,2.10
2023-03-20T10:00:54.888Z,1.50
2023-03-20T10:04:54.961Z,2.28
2023-03-20T10:08:54.867Z,2.23
2023-03-20T10:12:54.889Z,1.49
2023-03-20T10:16:54.738Z,2.03
2023-03-20T10:20:54.705Z,1.58
2023-03-20T10:24:54.891Z,1.70
2023-03-20T10:28:54.806Z,2.09
2023-03-20T10:32:54.959Z,2.07
2023-03-20T10:36:55.401Z,1.91
2023-03-20T10:40:54.906Z,2.53
2023-03-20T10:44:54.887Z,1.99
2023-03-20T10:48:54.886Z,2.06
2023-03-20T10:52:54.762Z,1.75
2023-03-20T10:56:54.914Z,1.56
2023-03-20T11:00:54.735Z,1.87
2023-03-20T11:04:54.975Z,2.02
2023-03-20T11:08:54.652Z,1.41
2023-03-20T11:12:54.942Z,1.14
2023-03-20T11:16:54.628Z,1.23
2023-03-20T11:20:54.748Z,0.97
2023-03-20T11:24:54.936Z,0.86
2023-03-20T11:28:54.715Z,1.12
2023-03-20T11:32:54.988Z,1.08
2023-03-20T11:37:08.733Z,1.21
2023-03-20T11:40:55.951Z,1.46
2023-03-20T11:44:54.773Z,2.46
2023-03-20T11:48:54.932Z,3.49
2023-03-20T11:52:55.013Z,3.84
2023-03-20T11:56:55.420Z,3.62
2023-03-20T12:00:55.151Z,3.28
2023-03-20T12:04:55.137Z,2.86
2023-03-20T12:08:55.124Z,3.15
2023-03-20T12:12:55.446Z,2.98
2023-03-20T12:16:55.215Z,3.11
2023-03-20T12:20:55.452Z,3.11
2023-03-20T12:24:55.302Z,2.83
2023-03-20T12:32:55.511Z,3.00
2023-03-20T12:36:55.466Z,3.01
2023-03-20T12:40:55.177Z,2.23
2023-03-20T12:44:55.105Z,2.44
2023-03-20T12:48:55.478Z,2.18
2023-03-20T12:52:55.064Z,3.10
2023-03-20T12:56:55.023Z,2.80
2023-03-20T13:00:55.006Z,1.93
2023-03-20T13:04:54.968Z,1.88
2023-03-20T13:08:54.982Z,1.85
2023-03-20T13:12:54.906Z,1.64
2023-03-20T13:16:54.829Z,1.60
2023-03-20T13:20:54.967Z,1.81
2023-03-20T13:24:54.821Z,1.14
2023-03-20T13:28:54.803Z,1.16
2023-03-20T13:32:54.849Z,0.87
2023-03-20T13:36:54.705Z,1.33
2023-03-20T13:40:54.756Z,0.90
2023-03-20T13:44:54.658Z,0.89
2023-03-20T13:48:54.620Z,0.60
2023-03-20T13:52:54.582Z,1.69
2023-03-20T13:56:54.584Z,0.94
2023-03-20T14:00:54.569Z,1.01
2023-03-20T14:04:54.493Z,1.02
2023-03-20T14:08:54.424Z,1.01
2023-03-20T14:12:54.430Z,0.91
2023-03-20T14:16:54.393Z,0.96
2023-03-20T14:20:54.329Z,0.95
2023-03-20T14:24:54.314Z,0.76
2023-03-20T14:28:54.280Z,1.00
2023-03-20T14:32:54.500Z,1.05
2023-03-20T14:36:54.279Z,1.22
2023-03-20T14:40:54.235Z,0.43
2023-03-20T14:44:54.142Z,0.76
2023-03-20T14:48:54.142Z,0.76
2023-03-20T14:52:54.101Z,1.13
2023-03-20T14:56:54.079Z,1.40
2023-03-20T15:00:54.080Z,0.95
2023-03-20T15:04:53.959Z,1.38
2023-03-20T15:08:54.018Z,1.20
2023-03-20T15:12:54.017Z,1.11
2023-03-20T15:16:54.022Z,1.05
2023-03-20T15:20:53.886Z,1.06
2023-03-20T15:24:53.791Z,0.88
2023-03-20T15:28:53.808Z,0.98
2023-03-20T15:32:53.795Z,1.11
2023-03-20T15:36:53.746Z,1.27
2023-03-20T15:40:53.999Z,1.01
2023-03-20T15:44:53.667Z,1.03
2023-03-20T15:48:53.618Z,1.02
2023-03-20T15:52:53.573Z,1.24
2023-03-20T15:56:53.532Z,1.08
2023-03-20T16:00:53.499Z,0.74
2023-03-20T16:04:53.472Z,1.23
2023-03-20T16:08:53.405Z,0.67
2023-03-20T16:12:53.388Z,0.90
2023-03-20T16:16:53.401Z,0.91
2023-03-20T16:20:53.408Z,1.17
2023-03-20T16:24:53.409Z,1.10
2023-03-20T16:28:53.394Z,0.89
2023-03-20T16:32:53.361Z,0.79
2023-03-20T16:36:53.344Z,0.85
2023-03-20T16:40:53.347Z,0.80
2023-03-20T16:44:53.379Z,0.96
2023-03-20T16:48:53.358Z,1.06
2023-03-20T16:52:53.359Z,1.22
2023-03-20T16:56:53.376Z,0.80
2023-03-20T17:00:53.458Z,1.33
2023-03-20T17:04:53.360Z,0.92
2023-03-20T17:08:53.361Z,0.98
2023-03-20T17:12:53.398Z,1.15
2023-03-20T17:16:53.474Z,1.37
2023-03-20T17:20:53.384Z,1.30
2023-03-20T17:24:53.414Z,1.44
2023-03-20T17:28:53.406Z,1.04
2023-03-20T17:32:53.501Z,1.77
2023-03-20T17:36:53.554Z,1.73
2023-03-20T17:40:53.513Z,1.14
2023-03-20T17:44:53.518Z,1.52
2023-03-20T17:48:53.530Z,1.82
2023-03-20T17:52:53.609Z,1.52
2023-03-20T17:56:53.673Z,2.20
2023-03-20T18:00:53.839Z,1.67
2023-03-20T18:04:53.861Z,1.85
2023-03-20T18:08:53.896Z,2.08
2023-03-20T18:12:54.026Z,2.08
2023-03-20T18:16:54.227Z,2.09
2023-03-20T18:20:54.382Z,2.12
2023-03-20T18:24:54.579Z,1.97
2023-03-20T18:28:54.805Z,2.29
2023-03-20T18:32:55.046Z,2.27
2023-03-20T18:36:54.996Z,2.29
2023-03-20T18:40:54.935Z,3.15
2023-03-20T18:44:54.900Z,2.96
2023-03-20T18:48:54.854Z,3.31
2023-03-20T18:52:54.859Z,3.09
2023-03-20T18:56:54.789Z,3.56
2023-03-20T19:00:54.749Z,3.54
2023-03-20T19:04:54.748Z,3.56
2023-03-20T19:08:54.709Z,3.42
2023-03-20T19:12:54.639Z,3.65
2023-03-20T19:16:54.624Z,3.77
2023-03-20T19:20:54.592Z,3.62
2023-03-20T19:24:54.533Z,4.20
2023-03-20T19:28:54.513Z,3.46
2023-03-20T19:32:54.525Z,3.38
2023-03-20T19:36:54.463Z,3.98
2023-03-20T19:40:54.468Z,3.46
2023-03-20T19:44:54.423Z,3.67
2023-03-20T19:48:57.830Z,4.37
2023-03-20T19:52:54.294Z,3.38
2023-03-20T19:56:54.234Z,3.28
2023-03-20T20:00:59.183Z,3.25
2023-03-20T20:04:55.193Z,3.26
2023-03-20T20:08:54.144Z,3.42
2023-03-20T20:12:54.126Z,3.25
2023-03-20T20:16:54.124Z,3.29
2023-03-20T20:24:55.003Z,3.55
2023-03-20T20:28:53.973Z,3.62
2023-03-20T20:32:54.655Z,3.58
2023-03-20T20:40:54.875Z,3.27
2023-03-20T20:44:53.808Z,3.04
2023-03-20T20:48:53.887Z,3.23
2023-03-20T20:52:53.792Z,3.15
2023-03-20T20:56:53.984Z,4.30
2023-03-20T21:00:55.488Z,2.97
2023-03-20T21:04:54.316Z,3.36
2023-03-20T21:08:54.437Z,2.96
2023-03-20T21:12:59.486Z,3.08
2023-03-20T21:16:55.638Z,3.57
2023-03-20T21:20:54.544Z,3.54
2023-03-20T21:25:11.097Z,3.53
2023-03-20T21:28:55.599Z,3.46
2023-03-20T21:32:54.548Z,3.35
2023-03-20T21:36:54.589Z,3.21
2023-03-20T21:40:54.765Z,2.96
2023-03-20T21:45:39.051Z,3.63
2023-03-20T21:49:46.519Z,2.75
2023-03-20T21:57:53.117Z,2.92
2023-03-20T22:09:45.687Z,3.11
2023-03-20T22:17:45.643Z,2.88
2023-03-20T22:25:39.186Z,2.79
2023-03-20T22:37:46.282Z,2.67
2023-03-20T22:45:04.487Z,2.52
2023-03-20T22:48:55.349Z,3.35
2023-03-20T22:52:54.316Z,2.40
2023-03-20T22:56:54.294Z,2.66
2023-03-20T23:00:54.292Z,2.69
2023-03-20T23:04:54.267Z,2.46
2023-03-20T23:08:56.693Z,3.03
2023-03-20T23:12:54.165Z,2.94
2023-03-20T23:16:54.141Z,2.89
2023-03-20T23:20:54.113Z,2.94
2023-03-20T23:24:57.331Z,2.84
2023-03-20T23:28:55.016Z,2.30
2023-03-20T23:32:53.996Z,2.17
2023-03-20T23:36:53.928Z,2.63
2023-03-20T23:40:53.874Z,2.63
2023-03-20T23:44:57.374Z,2.52
2023-03-20T23:48:53.827Z,2.48
2023-03-20T23:53:01.350Z,3.05
2023-03-20T23:56:54.787Z,2.65
